createdAt,value
2023-03-16T00:00:37.909Z,101979.69
2023-03-16T00:05:41.874Z,101982.22
2023-03-16T00:10:47.295Z,101972.25
2023-03-16T00:15:52.315Z,101975.84
2023-03-16T00:20:55.758Z,101977.81
2023-03-16T00:26:03.115Z,101973.56
2023-03-16T00:31:06.459Z,101968.78
2023-03-16T00:36:11.326Z,101955.28
2023-03-16T00:41:16.968Z,101952.53
2023-03-16T00:46:27.000Z,101951.28
2023-03-16T00:51:28.802Z,101952.56
2023-03-16T00:56:34.989Z,101952.66
2023-03-16T01:01:39.217Z,101949.84
2023-03-16T01:06:43.463Z,101946.13
2023-03-16T01:11:49.365Z,101938.88
2023-03-16T01:16:53.798Z,101940.31
2023-03-16T01:21:58.297Z,101933.72
2023-03-16T01:27:03.315Z,101930.53
2023-03-16T01:32:05.516Z,101918.72
2023-03-16T01:37:09.654Z,101916.63
2023-03-16T01:42:48.299Z,101909.00
2023-03-16T01:47:50.879Z,101899.13
2023-03-16T01:52:55.035Z,101891.63
2023-03-16T01:57:56.978Z,101881.25
2023-03-16T02:03:16.374Z,101880.38
2023-03-16T02:08:27.385Z,101875.38
2023-03-16T02:13:32.656Z,101867.91
2023-03-16T02:18:39.618Z,101871.53
2023-03-16T02:23:44.203Z,101852.16
2023-03-16T02:29:19.570Z,101860.47
2023-03-16T02:34:23.319Z,101865.19
2023-03-16T02:39:25.483Z,101860.47
2023-03-16T02:44:33.670Z,101865.28
2023-03-16T02:49:42.310Z,101864.66
2023-03-16T02:54:46.248Z,101862.13
2023-03-16T02:59:48.691Z,101864.38
2023-03-16T03:04:54.431Z,101858.44
2023-03-16T03:09:58.531Z,101853.75
2023-03-16T03:15:00.595Z,101860.63
2023-03-16T03:20:13.880Z,101858.56
2023-03-16T03:25:18.273Z,101851.41
2023-03-16T03:30:22.292Z,101853.47
2023-03-16T03:35:26.480Z,101864.28
2023-03-16T03:40:29.555Z,101854.00
2023-03-16T03:45:34.651Z,101853.44
2023-03-16T03:50:38.499Z,101847.75
2023-03-16T03:56:02.237Z,101844.94
2023-03-16T04:01:08.612Z,101845.47
2023-03-16T04:06:11.151Z,101833.78
2023-03-16T04:11:13.043Z,101828.09
2023-03-16T04:16:16.258Z,101818.19
2023-03-16T04:21:20.985Z,101818.19
2023-03-16T04:26:22.804Z,101808.81
2023-03-16T04:31:24.905Z,101803.63
2023-03-16T04:36:26.922Z,101797.81
2023-03-16T04:41:29.165Z,101794.69
2023-03-16T04:46:36.322Z,101805.75
2023-03-16T04:51:42.567Z,101783.91
2023-03-16T04:56:48.944Z,101794.69
2023-03-16T05:02:12.496Z,101779.38
2023-03-16T05:07:16.800Z,101763.56
2023-03-16T05:12:25.995Z,101766.84
2023-03-16T05:17:33.898Z,101763.91
2023-03-16T05:22:35.872Z,101763.59
2023-03-16T05:27:54.270Z,101761.59
2023-03-16T05:33:06.982Z,101758.56
2023-03-16T05:38:10.078Z,101752.66
2023-03-16T05:43:15.852Z,101767.25
2023-03-16T05:48:26.240Z,101763.81
2023-03-16T05:53:35.521Z,101767.63
2023-03-16T05:58:55.853Z,101762.34
2023-03-16T06:04:02.920Z,101760.63
2023-03-16T06:09:13.867Z,101766.66
2023-03-16T06:14:16.825Z,101770.78
2023-03-16T06:19:24.274Z,101775.66
2023-03-16T06:24:33.731Z,101764.63
2023-03-16T06:29:41.259Z,101774.59
2023-03-16T06:34:46.508Z,101761.81
2023-03-16T06:39:48.288Z,101768.56
2023-03-16T06:44:50.305Z,101766.44
2023-03-16T06:49:54.398Z,101762.53
2023-03-16T06:54:59.100Z,101766.50
2023-03-16T07:00:04.320Z,101758.78
2023-03-16T07:05:11.173Z,101769.22
2023-03-16T07:10:17.540Z,101762.41
2023-03-16T07:15:21.893Z,101769.69
2023-03-16T07:20:23.888Z,101764.78
2023-03-16T07:25:31.570Z,101775.06
2023-03-16T07:30:36.637Z,101778.69
2023-03-16T07:35:39.634Z,101773.47
2023-03-16T07:40:46.249Z,101770.91
2023-03-16T07:45:55.794Z,101785.09
2023-03-16T07:50:59.591Z,101776.00
2023-03-16T07:56:02.337Z,101768.53
2023-03-16T08:01:06.913Z,101769.88
2023-03-16T08:06:10.837Z,101781.69
2023-03-16T08:11:23.676Z,101779.31
2023-03-16T08:16:31.896Z,101787.41
2023-03-16T08:21:49.236Z,101778.63
2023-03-16T08:27:01.332Z,101782.66
2023-03-16T08:32:07.535Z,101788.47
2023-03-16T08:37:20.773Z,101776.03
2023-03-16T08:42:23.950Z,101775.56
2023-03-16T08:47:33.189Z,101775.81
2023-03-16T08:52:38.673Z,101772.31
2023-03-16T08:57:40.415Z,101764.91
2023-03-16T09:02:44.617Z,101762.00
2023-03-16T09:07:49.108Z,101769.09
2023-03-16T09:12:53.967Z,101756.13
2023-03-16T09:18:00.621Z,101759.78
2023-03-16T09:23:04.780Z,101748.38
2023-03-16T09:28:10.489Z,101744.31
2023-03-16T09:33:12.339Z,101747.88
2023-03-16T09:38:17.670Z,101748.91
2023-03-16T09:43:40.894Z,101738.94
2023-03-16T09:48:42.647Z,101735.38
2023-03-16T09:53:47.966Z,101730.38
2023-03-16T09:59:32.739Z,101740.88
2023-03-16T10:10:56.113Z,101743.59
2023-03-16T10:16:05.795Z,101720.00
2023-03-16T10:21:18.263Z,101729.09
2023-03-16T10:26:29.709Z,101726.78
2023-03-16T10:31:35.011Z,101724.56
2023-03-16T10:36:39.880Z,101718.84
2023-03-16T10:42:10.446Z,101713.34
2023-03-16T10:47:19.203Z,101716.72
2023-03-16T10:52:27.422Z,101707.97
2023-03-16T10:57:34.364Z,101710.31
2023-03-16T11:02:39.200Z,101706.50
2023-03-16T11:08:12.564Z,101697.00
2023-03-16T11:13:20.144Z,101697.03
2023-03-16T11:18:45.476Z,101696.78
2023-03-16T11:23:55.095Z,101682.97
2023-03-16T11:29:09.307Z,101677.31
2023-03-16T11:34:19.374Z,101666.81
2023-03-16T11:39:31.170Z,101634.28
2023-03-16T11:44:37.753Z,101646.22
2023-03-16T11:50:23.384Z,101634.47
2023-03-16T11:55:46.702Z,101642.91
2023-03-16T12:01:08.674Z,101623.97
2023-03-16T12:06:23.572Z,101623.53
2023-03-16T12:11:28.862Z,101622.50
2023-03-16T12:16:48.698Z,101642.94
2023-03-16T12:22:10.329Z,101612.84
2023-03-16T12:27:22.677Z,101620.00
2023-03-16T12:32:47.004Z,101603.78
2023-03-16T12:38:20.541Z,101599.72
2023-03-16T12:43:40.653Z,101597.50
2023-03-16T12:48:56.512Z,101616.72
2023-03-16T12:54:04.106Z,101596.56
2023-03-16T12:59:11.619Z,101588.00
2023-03-16T13:04:32.411Z,101599.94
2023-03-16T13:09:42.189Z,101592.84
2023-03-16T13:14:44.685Z,101586.66
2023-03-16T13:20:04.524Z,101606.25
2023-03-16T13:25:18.854Z,101594.69
2023-03-16T13:30:23.684Z,101599.53
2023-03-16T13:35:29.541Z,101564.09
2023-03-16T13:40:31.528Z,101563.44
2023-03-16T13:45:38.776Z,101546.59
2023-03-16T13:50:44.812Z,101542.13
2023-03-16T13:55:49.992Z,101536.25
2023-03-16T14:00:56.830Z,101525.53
2023-03-16T14:05:58.777Z,101511.28
2023-03-16T14:11:03.755Z,101506.00
2023-03-16T14:16:13.979Z,101493.72
2023-03-16T14:21:35.891Z,101476.78
2023-03-16T14:26:46.325Z,101471.06
2023-03-16T14:31:50.789Z,101456.94
2023-03-16T14:36:53.049Z,101449.72
2023-03-16T14:41:54.864Z,101429.22
2023-03-16T14:47:07.350Z,101410.78
2023-03-16T14:52:33.676Z,101408.19
2023-03-16T14:57:36.440Z,101393.41
2023-03-16T15:02:40.775Z,101382.03
2023-03-16T15:07:45.376Z,101389.59
2023-03-16T15:13:04.031Z,101365.69
2023-03-16T15:18:07.174Z,101369.38
2023-03-16T15:23:13.857Z,101360.94
2023-03-16T15:28:17.512Z,101360.06
2023-03-16T15:33:19.890Z,101361.94
2023-03-16T15:38:29.962Z,101352.03
2023-03-16T15:43:31.975Z,101352.22
2023-03-16T15:48:36.260Z,101343.78
2023-03-16T15:53:44.501Z,101347.88
2023-03-16T15:58:46.990Z,101328.94
2023-03-16T16:03:51.863Z,101329.69
2023-03-16T16:08:56.134Z,101332.66
2023-03-16T16:14:01.054Z,101321.19
2023-03-16T16:19:02.854Z,101322.78
2023-03-16T16:24:07.235Z,101308.94
2023-03-16T16:29:17.529Z,101315.41
2023-03-16T16:34:24.664Z,101307.41
2023-03-16T16:39:27.608Z,101303.38
2023-03-16T16:44:40.464Z,101299.72
2023-03-16T16:49:42.312Z,101287.75
2023-03-16T16:54:44.289Z,101311.13
2023-03-16T16:59:49.458Z,101314.72
2023-03-16T17:04:51.780Z,101303.00
2023-03-16T17:09:58.618Z,101304.44
2023-03-16T17:15:06.725Z,101289.69
2023-03-16T17:20:20.907Z,101275.53
2023-03-16T17:25:23.202Z,101270.66
2023-03-16T17:30:30.375Z,101267.97
2023-03-16T17:35:34.376Z,101274.31
2023-03-16T17:40:38.766Z,101273.94
2023-03-16T17:45:42.971Z,101276.03
2023-03-16T17:50:50.316Z,101293.84
2023-03-16T17:55:54.353Z,101297.44
2023-03-16T18:00:56.614Z,101283.00
2023-03-16T18:06:00.786Z,101288.88
2023-03-16T18:11:11.832Z,101290.69
2023-03-16T18:16:23.226Z,101300.50
2023-03-16T18:21:28.292Z,101308.63
2023-03-16T18:26:30.073Z,101292.94
2023-03-16T18:31:34.111Z,101307.69
2023-03-16T18:36:38.436Z,101302.81
2023-03-16T18:41:40.179Z,101301.56
2023-03-16T18:46:42.262Z,101304.38
2023-03-16T18:51:47.389Z,101286.06
2023-03-16T18:56:49.716Z,101287.31
2023-03-16T19:01:54.440Z,101285.94
2023-03-16T19:07:03.917Z,101288.34
2023-03-16T19:12:11.490Z,101274.28
2023-03-16T19:17:16.408Z,101257.13
2023-03-16T19:22:21.924Z,101257.41
2023-03-16T19:27:26.304Z,101254.50
2023-03-16T19:32:33.111Z,101262.06
2023-03-16T19:37:35.114Z,101248.66
2023-03-16T19:42:37.726Z,101230.38
2023-03-16T19:47:41.874Z,101220.72
2023-03-16T19:52:44.136Z,101226.19
2023-03-16T19:57:49.404Z,101221.13
2023-03-16T20:02:55.339Z,101210.50
2023-03-16T20:08:01.017Z,101203.25
2023-03-16T20:13:07.574Z,101193.91
2023-03-16T20:18:14.599Z,101184.41
2023-03-16T20:23:27.125Z,101181.44
2023-03-16T20:28:37.219Z,101176.13
2023-03-16T20:33:38.974Z,101173.34
2023-03-16T20:38:43.298Z,101168.03
2023-03-16T20:43:48.184Z,101170.00
2023-03-16T20:48:50.040Z,101172.50
2023-03-16T20:53:54.085Z,101169.84
2023-03-16T20:59:00.701Z,101144.28
2023-03-16T21:04:07.337Z,101128.34
2023-03-16T21:09:11.565Z,101120.69
2023-03-16T21:14:18.291Z,101120.69
2023-03-16T21:19:24.954Z,101119.13
2023-03-16T21:24:29.002Z,101111.31
2023-03-16T21:29:30.995Z,101118.75
2023-03-16T21:34:37.907Z,101122.16
2023-03-16T21:39:39.666Z,101106.34
2023-03-16T21:44:46.324Z,101114.19
2023-03-16T21:49:48.170Z,101100.94
2023-03-16T21:54:52.805Z,101111.38
2023-03-16T21:59:54.603Z,101106.66
2023-03-16T22:04:58.932Z,101100.38
2023-03-16T22:10:03.052Z,101080.16
2023-03-16T22:15:10.291Z,101083.50
2023-03-16T22:20:22.776Z,101083.88
2023-03-16T22:25:26.658Z,101072.31
2023-03-16T22:30:28.546Z,101062.81
2023-03-16T22:35:36.461Z,101067.41
2023-03-16T22:40:41.466Z,101072.00
2023-03-16T22:45:43.613Z,101065.44
2023-03-16T22:50:48.576Z,101054.94
2023-03-16T22:55:51.636Z,101052.28
2023-03-16T23:00:55.815Z,101061.66
2023-03-16T23:05:57.739Z,101041.41
2023-03-16T23:11:01.854Z,101031.38
2023-03-16T23:16:04.019Z,101025.09
2023-03-16T23:21:10.365Z,101025.66
2023-03-16T23:26:16.593Z,101022.88
2023-03-16T23:31:22.225Z,101040.66
2023-03-16T23:36:27.204Z,101050.13
2023-03-16T23:41:29.052Z,101045.78
2023-03-16T23:46:30.985Z,101049.13
2023-03-16T23:51:39.123Z,101028.09
2023-03-16T23:56:43.357Z,101024.88
